createdAt,value
2017-09-22T00:02:13.491Z,7.32
2017-09-22T00:04:40.960Z,5.75
2017-09-22T00:07:08.480Z,9.27
2017-09-22T00:09:35.938Z,8.30
2017-09-22T00:12:03.447Z,6.57
2017-09-22T00:14:30.905Z,13.48
2017-09-22T00:16:58.440Z,6.57
2017-09-22T00:19:25.919Z,7.32
2017-09-22T00:21:53.402Z,8.88
2017-09-22T00:24:21.660Z,7.28
2017-09-22T00:26:49.111Z,6.07
2017-09-22T00:29:16.609Z,8.05
2017-09-22T00:31:44.091Z,4.97
2017-09-22T00:34:11.551Z,8.80
2017-09-22T00:36:39.036Z,8.57
2017-09-22T00:39:06.498Z,6.60
2017-09-22T00:41:34.012Z,8.25
2017-09-22T00:44:01.479Z,9.23
2017-09-22T00:46:28.991Z,8.63
2017-09-22T00:48:56.450Z,9.40
2017-09-22T00:51:23.919Z,7.55
2017-09-22T00:53:52.166Z,7.00
2017-09-22T00:56:20.413Z,7.70
2017-09-22T00:58:47.902Z,5.60
2017-09-22T01:01:15.398Z,8.48
2017-09-22T01:03:43.647Z,9.35
2017-09-22T01:06:11.124Z,9.63
2017-09-22T01:08:39.409Z,7.82
2017-09-22T01:11:07.630Z,10.45
2017-09-22T01:13:35.095Z,9.48
2017-09-22T01:16:02.591Z,7.87
2017-09-22T01:18:30.830Z,9.80
2017-09-22T01:20:58.334Z,8.77
2017-09-22T01:23:26.566Z,7.20
2017-09-22T01:25:54.040Z,6.90
2017-09-22T01:28:21.524Z,10.38
2017-09-22T01:30:49.747Z,6.75
2017-09-22T01:33:17.232Z,13.35
2017-09-22T01:35:44.708Z,7.45
2017-09-22T01:38:12.179Z,8.98
2017-09-22T01:40:40.431Z,11.52
2017-09-22T01:43:07.928Z,8.73
2017-09-22T01:45:35.394Z,7.82
2017-09-22T01:48:02.916Z,9.25
2017-09-22T01:50:31.172Z,8.57
2017-09-22T01:52:58.622Z,7.25
2017-09-22T01:55:26.115Z,6.45
2017-09-22T01:57:54.377Z,6.62
2017-09-22T02:00:21.894Z,10.27
2017-09-22T02:02:49.366Z,10.38
2017-09-22T02:05:16.823Z,8.70
2017-09-22T02:07:44.319Z,8.65
2017-09-22T02:10:12.556Z,8.48
2017-09-22T02:12:40.057Z,9.50
2017-09-22T02:15:07.547Z,9.90
2017-09-22T02:17:35.031Z,11.90
2017-09-22T02:20:02.495Z,11.95
2017-09-22T02:22:29.985Z,11.88
2017-09-22T02:24:57.459Z,8.68
2017-09-22T02:27:25.716Z,8.05
2017-09-22T02:29:53.195Z,6.70
2017-09-22T02:32:21.454Z,17.27
2017-09-22T02:34:48.927Z,8.23
2017-09-22T02:37:17.167Z,8.82
2017-09-22T02:39:44.655Z,9.05
2017-09-22T02:42:12.935Z,15.32
2017-09-22T02:44:41.168Z,9.20
2017-09-22T02:47:08.668Z,7.37
2017-09-22T02:49:36.887Z,8.95
2017-09-22T02:52:04.372Z,7.20
2017-09-22T02:54:31.840Z,7.62
2017-09-22T02:56:59.353Z,9.00
2017-09-22T02:59:26.810Z,9.55
2017-09-22T03:01:54.263Z,7.37
2017-09-22T03:04:21.788Z,8.00
2017-09-22T03:06:49.239Z,8.40
2017-09-22T03:09:16.757Z,7.00
2017-09-22T03:11:44.270Z,11.80
2017-09-22T03:14:12.499Z,7.25
2017-09-22T03:16:39.966Z,8.40
2017-09-22T03:19:08.226Z,8.45
2017-09-22T03:21:35.708Z,7.43
2017-09-22T03:24:03.216Z,9.50
2017-09-22T03:26:30.721Z,9.80
2017-09-22T03:28:58.331Z,9.05
2017-09-22T03:31:26.571Z,7.60
2017-09-22T03:33:54.039Z,10.20
2017-09-22T03:36:21.529Z,11.52
2017-09-22T03:38:48.997Z,9.77
2017-09-22T03:41:16.483Z,8.95
2017-09-22T03:43:43.943Z,10.43
2017-09-22T03:46:11.469Z,12.57
2017-09-22T03:48:38.934Z,9.57
2017-09-22T03:51:06.403Z,8.50
2017-09-22T03:53:33.891Z,10.27
2017-09-22T03:56:01.366Z,9.05
2017-09-22T03:58:28.847Z,7.10
2017-09-22T04:00:57.327Z,11.18
2017-09-22T04:03:25.604Z,8.73
2017-09-22T04:05:53.849Z,11.88
2017-09-22T04:08:21.320Z,7.62
2017-09-22T04:10:48.805Z,8.95
2017-09-22T04:13:17.061Z,10.57
2017-09-22T04:15:44.528Z,10.68
2017-09-22T04:18:12.794Z,10.93
2017-09-22T04:20:40.277Z,9.45
2017-09-22T04:23:07.790Z,9.70
2017-09-22T04:25:35.281Z,11.10
2017-09-22T04:28:03.539Z,10.57
2017-09-22T04:30:31.004Z,9.38
2017-09-22T04:32:58.484Z,9.15
2017-09-22T04:35:26.707Z,9.95
2017-09-22T04:37:54.209Z,7.68
2017-09-22T05:08:21.963Z,8.57
2017-09-22T05:10:50.196Z,14.73
2017-09-22T05:13:17.694Z,12.48
2017-09-22T05:15:45.222Z,11.38
2017-09-22T05:18:12.710Z,10.10
2017-09-22T05:20:40.199Z,11.57
2017-09-22T05:23:07.696Z,12.15
2017-09-22T05:25:35.199Z,13.23
2017-09-22T05:28:03.451Z,10.07
2017-09-22T05:30:31.003Z,11.15
2017-09-22T05:32:58.499Z,10.70
2017-09-22T05:35:26.758Z,14.20
2017-09-22T05:37:54.275Z,11.85
2017-09-22T05:40:21.749Z,11.20
2017-09-22T05:42:49.247Z,9.90
2017-09-22T05:45:17.487Z,11.18
2017-09-22T05:47:44.988Z,16.15
2017-09-22T05:50:13.256Z,13.20
2017-09-22T05:52:41.490Z,14.50
2017-09-22T05:55:08.978Z,12.80
2017-09-22T05:57:36.441Z,10.32
2017-09-22T06:00:03.935Z,14.15
2017-09-22T06:02:31.412Z,11.70
2017-09-22T06:04:58.914Z,10.70
2017-09-22T06:07:26.377Z,10.07
2017-09-22T06:09:53.851Z,17.83
2017-09-22T06:12:22.100Z,15.25
2017-09-22T06:14:49.574Z,13.48
2017-09-22T06:17:17.827Z,15.15
2017-09-22T06:19:45.291Z,12.23
2017-09-22T06:22:12.791Z,11.10
2017-09-22T06:24:40.253Z,13.18
2017-09-22T06:27:07.752Z,17.42
2017-09-22T06:29:35.257Z,22.13
2017-09-22T06:32:03.523Z,16.27
2017-09-22T06:34:31.779Z,12.02
2017-09-22T06:36:59.252Z,17.65
2017-09-22T06:39:26.763Z,14.55
2017-09-22T06:41:54.227Z,15.02
2017-09-22T06:44:21.740Z,18.83
2017-09-22T06:46:50.013Z,20.25
2017-09-22T06:49:18.239Z,14.98
2017-09-22T06:51:45.998Z,14.90
2017-09-22T06:54:13.495Z,23.10
2017-09-22T06:56:41.001Z,18.75
2017-09-22T06:59:08.480Z,16.00
2017-09-22T07:01:36.034Z,20.50
2017-09-22T07:04:03.544Z,17.42
2017-09-22T07:06:31.783Z,16.77
2017-09-22T07:08:59.314Z,20.85
2017-09-22T07:11:26.796Z,16.15
2017-09-22T07:13:54.259Z,17.35
2017-09-22T07:16:21.804Z,25.98
2017-09-22T07:18:49.284Z,28.83
2017-09-22T07:21:16.783Z,18.52
2017-09-22T07:23:44.256Z,23.27
2017-09-22T07:26:11.773Z,20.73
2017-09-22T07:28:39.256Z,21.70
2017-09-22T07:31:07.571Z,20.95
2017-09-22T07:33:35.062Z,27.20
2017-09-22T07:36:02.550Z,21.12
2017-09-22T07:38:30.811Z,21.67
2017-09-22T07:40:58.300Z,22.70
2017-09-22T07:43:25.791Z,25.85
2017-09-22T07:45:53.333Z,21.90
2017-09-22T07:48:20.869Z,25.52
2017-09-22T07:50:48.382Z,29.65
2017-09-22T07:53:15.860Z,28.48
2017-09-22T07:55:43.382Z,29.95
2017-09-22T07:58:10.880Z,31.52
2017-09-22T08:00:38.396Z,31.23
2017-09-22T08:03:05.883Z,32.30
2017-09-22T08:05:33.393Z,35.60
2017-09-22T08:08:00.863Z,35.05
2017-09-22T08:10:28.379Z,56.80
2017-09-22T08:12:56.659Z,44.95
2017-09-22T08:15:24.988Z,45.90
2017-09-22T08:17:52.458Z,51.15
2017-09-22T08:20:19.924Z,44.87
2017-09-22T08:22:47.429Z,44.05
2017-09-22T08:25:15.656Z,46.70
2017-09-22T08:27:43.178Z,48.08
2017-09-22T08:30:10.659Z,46.83
2017-09-22T08:32:38.210Z,51.65
2017-09-22T08:35:05.701Z,59.47
2017-09-22T08:37:33.187Z,52.10
2017-09-22T08:40:01.474Z,59.78
2017-09-22T08:42:28.967Z,56.30
2017-09-22T08:44:56.490Z,42.77
2017-09-22T08:47:24.740Z,56.30
2017-09-22T08:49:52.260Z,49.50
2017-09-22T08:52:19.755Z,50.60
2017-09-22T08:54:47.237Z,51.80
2017-09-22T08:57:15.502Z,51.67
2017-09-22T08:59:42.979Z,57.07
2017-09-22T09:02:11.243Z,46.70
2017-09-22T09:04:39.485Z,46.27
2017-09-22T09:07:07.764Z,41.83
2017-09-22T09:09:35.250Z,62.03
2017-09-22T09:12:02.743Z,52.50
2017-09-22T09:14:30.248Z,48.20
2017-09-22T09:16:57.730Z,45.37
2017-09-22T09:46:17.320Z,35.47
2017-09-22T09:48:44.845Z,32.67
2017-09-22T09:51:12.347Z,33.83
2017-09-22T09:53:39.855Z,34.03
2017-09-22T09:56:07.341Z,30.57
2017-09-22T09:58:35.610Z,34.17
2017-09-22T10:01:03.855Z,32.80
2017-09-22T10:03:31.401Z,30.20
2017-09-22T10:05:58.905Z,28.43
2017-09-22T10:08:27.164Z,36.47
2017-09-22T10:10:54.689Z,27.53
2017-09-22T10:13:22.197Z,26.00
2017-09-22T10:15:50.471Z,26.60
2017-09-22T10:18:18.731Z,22.47
2017-09-22T10:20:46.248Z,24.30
2017-09-22T10:23:13.753Z,21.37
2017-09-22T10:25:41.255Z,22.23
2017-09-22T10:28:08.755Z,28.60
2017-09-22T10:30:36.247Z,24.33
2017-09-22T10:33:04.516Z,22.63
2017-09-22T10:35:32.001Z,24.73
2017-09-22T10:38:00.265Z,24.97
2017-09-22T10:40:28.539Z,24.23
2017-09-22T10:42:56.823Z,26.87
2017-09-22T10:45:25.116Z,23.27
2017-09-22T10:47:52.586Z,22.23
2017-09-22T10:50:20.101Z,23.17
2017-09-22T10:52:47.611Z,20.40
2017-09-22T10:55:15.080Z,21.43
2017-09-22T10:57:42.599Z,21.40
2017-09-22T11:00:10.835Z,21.03
2017-09-22T11:02:38.344Z,25.13
2017-09-22T11:05:05.848Z,23.87
2017-09-22T11:07:33.359Z,18.50
2017-09-22T11:10:00.841Z,24.00
2017-09-22T11:12:28.392Z,20.63
2017-09-22T11:14:55.881Z,19.53
2017-09-22T11:17:23.360Z,22.20
2017-09-22T11:19:50.867Z,18.23
2017-09-22T11:22:18.372Z,21.20
2017-09-22T11:24:45.913Z,21.50
2017-09-22T11:27:13.420Z,26.13
2017-09-22T11:29:41.702Z,19.57
2017-09-22T11:32:09.955Z,19.80
2017-09-22T11:34:37.420Z,18.00
2017-09-22T11:37:04.934Z,19.33
2017-09-22T11:39:32.409Z,18.10
2017-09-22T11:41:59.937Z,19.27
2017-09-22T11:44:27.454Z,19.20
2017-09-22T11:46:55.716Z,17.10
2017-09-22T11:49:23.198Z,19.57
2017-09-22T11:51:51.586Z,17.13
2017-09-22T11:54:19.853Z,19.83
2017-09-22T11:56:48.113Z,15.37
2017-09-22T11:59:16.499Z,15.77
2017-09-22T12:01:44.078Z,12.27
2017-09-22T12:04:12.447Z,11.63
2017-09-22T12:06:40.761Z,13.97
2017-09-22T12:09:08.231Z,13.33
2017-09-22T12:11:35.722Z,13.83
2017-09-22T12:14:03.339Z,11.80
2017-09-22T12:16:30.916Z,12.80
2017-09-22T12:18:58.499Z,8.90
2017-09-22T12:21:26.063Z,9.60
2017-09-22T12:23:53.633Z,16.43
2017-09-22T12:26:21.958Z,10.10
2017-09-22T12:28:50.263Z,7.73
2017-09-22T12:31:17.732Z,9.57
2017-09-22T12:33:45.259Z,9.77
2017-09-22T12:36:12.756Z,11.27
2017-09-22T12:38:40.234Z,9.30
2017-09-22T12:41:08.494Z,8.97
2017-09-22T12:43:35.980Z,7.43
2017-09-22T12:46:04.217Z,8.60
2017-09-22T12:48:31.692Z,6.83
2017-09-22T12:50:59.203Z,9.90
2017-09-22T12:53:26.675Z,8.03
2017-09-22T12:55:54.139Z,8.10
2017-09-22T12:58:21.650Z,8.83
2017-09-22T13:00:49.880Z,11.33
2017-09-22T13:03:17.387Z,8.83
2017-09-22T13:05:45.632Z,7.50
2017-09-22T13:08:13.108Z,6.30
2017-09-22T13:10:41.380Z,6.40
2017-09-22T13:13:08.894Z,8.33
2017-09-22T13:15:36.352Z,4.93
2017-09-22T13:18:03.874Z,5.67
2017-09-22T13:20:32.096Z,4.20
2017-09-22T13:22:59.586Z,5.67
2017-09-22T13:25:27.086Z,3.60
2017-09-22T13:27:54.573Z,8.30
2017-09-22T13:30:22.103Z,4.73
2017-09-22T13:32:49.587Z,5.00
2017-09-22T13:35:17.064Z,5.67
2017-09-22T13:37:44.610Z,5.07
2017-09-22T13:40:12.085Z,5.00
2017-09-22T13:42:39.561Z,3.27
2017-09-22T13:45:07.072Z,5.93
2017-09-22T13:47:34.522Z,4.40
2017-09-22T13:50:02.024Z,5.53
2017-09-22T13:52:30.991Z,4.53
2017-09-22T13:54:58.499Z,3.97
2017-09-22T13:57:26.741Z,4.93
2017-09-22T13:59:54.205Z,3.13
2017-09-22T14:02:21.698Z,6.60
2017-09-22T14:04:49.934Z,6.97
2017-09-22T14:07:17.430Z,5.07
2017-09-22T14:09:45.676Z,13.33
2017-09-22T14:12:13.200Z,6.40
2017-09-22T14:14:40.657Z,7.17
2017-09-22T14:17:08.137Z,3.20
2017-09-22T14:19:35.627Z,4.27
2017-09-22T14:22:03.100Z,2.83
2017-09-22T14:24:31.350Z,4.73
2017-09-22T14:26:58.823Z,8.80
2017-09-22T14:29:27.103Z,2.83
2017-09-22T14:31:55.361Z,6.80
2017-09-22T14:34:22.839Z,3.03
2017-09-22T14:36:50.328Z,5.67
2017-09-22T14:39:17.795Z,3.30
2017-09-22T14:41:45.280Z,4.17
2017-09-22T14:44:12.749Z,3.80
2017-09-22T14:46:40.292Z,3.30
2017-09-22T14:49:07.772Z,7.53
2017-09-22T14:51:35.288Z,3.73
2017-09-22T14:54:02.748Z,3.90
2017-09-22T14:56:30.266Z,5.60
2017-09-22T14:58:58.488Z,3.77
2017-09-22T15:01:25.958Z,5.37
2017-09-22T15:03:53.459Z,5.63
2017-09-22T15:06:20.919Z,3.30
2017-09-22T15:08:49.200Z,3.70
2017-09-22T15:11:17.427Z,4.00
2017-09-22T15:13:44.891Z,4.60
2017-09-22T15:16:12.397Z,3.10
2017-09-22T15:18:40.628Z,2.77
2017-09-22T15:21:08.123Z,3.90
2017-09-22T15:23:36.363Z,4.63
2017-09-22T15:26:03.851Z,4.67
2017-09-22T15:28:31.330Z,5.40
2017-09-22T15:30:59.608Z,4.20
2017-09-22T15:33:27.865Z,3.13
2017-09-22T15:35:56.253Z,3.10
2017-09-22T15:38:24.549Z,7.80
2017-09-22T15:40:52.801Z,4.23
2017-09-22T15:43:20.300Z,3.30
2017-09-22T15:45:47.829Z,3.40
2017-09-22T15:48:15.412Z,3.50
2017-09-22T15:50:42.907Z,4.53
2017-09-22T15:53:10.370Z,4.40
2017-09-22T15:55:38.299Z,5.77
2017-09-22T15:58:05.840Z,4.70
2017-09-22T16:00:34.336Z,4.03
2017-09-22T16:03:01.807Z,6.73
2017-09-22T16:05:29.281Z,3.63
2017-09-22T16:07:56.783Z,4.83
2017-09-22T16:10:25.023Z,3.90
2017-09-22T16:12:52.557Z,5.17
2017-09-22T16:15:20.027Z,9.23
2017-09-22T16:17:47.524Z,7.13
2017-09-22T16:20:15.043Z,6.03
2017-09-22T16:22:42.547Z,5.33
2017-09-22T16:25:10.035Z,6.23
2017-09-22T16:27:37.509Z,11.17
2017-09-22T16:30:05.031Z,12.50
2017-09-22T16:32:33.255Z,11.00
2017-09-22T16:35:00.739Z,13.60
2017-09-22T16:37:28.232Z,12.93
2017-09-22T16:39:56.703Z,23.70
2017-09-22T16:42:25.001Z,30.83
2017-09-22T16:44:53.229Z,24.60
2017-09-22T16:47:20.715Z,15.47
2017-09-22T16:49:48.204Z,10.07
2017-09-22T16:52:15.668Z,8.10
2017-09-22T16:54:43.165Z,6.30
2017-09-22T16:57:10.627Z,15.10
2017-09-22T16:59:38.136Z,11.23
2017-09-22T17:02:05.591Z,10.47
2017-09-22T17:04:33.079Z,6.47
2017-09-22T17:07:00.567Z,10.17
2017-09-22T17:09:28.032Z,5.20
2017-09-22T17:11:57.031Z,5.73
2017-09-22T17:14:24.517Z,8.70
2017-09-22T17:16:52.027Z,8.73
2017-09-22T17:19:19.635Z,10.33
2017-09-22T17:21:48.802Z,4.17
2017-09-22T17:24:16.280Z,16.50
2017-09-22T17:26:44.536Z,28.47
2017-09-22T17:29:12.048Z,18.50
2017-09-22T17:31:39.507Z,17.80
2017-09-22T17:34:07.108Z,15.67
2017-09-22T17:36:35.646Z,13.90
2017-09-22T17:39:03.144Z,9.13
2017-09-22T17:41:30.679Z,10.17
2017-09-22T17:43:58.197Z,8.03
2017-09-22T17:46:26.468Z,7.10
2017-09-22T17:48:54.724Z,10.23
2017-09-22T17:51:22.195Z,11.37
2017-09-22T17:53:50.519Z,6.23
2017-09-22T17:56:18.000Z,7.47
2017-09-22T17:58:45.470Z,12.23
2017-09-22T18:01:13.032Z,6.30
2017-09-22T18:03:40.963Z,8.57
2017-09-22T18:06:08.465Z,8.93
2017-09-22T18:08:38.687Z,8.63
2017-09-22T18:11:06.166Z,6.60
2017-09-22T18:13:34.427Z,8.13
2017-09-22T18:16:03.417Z,5.90
2017-09-22T18:18:30.937Z,13.53
2017-09-22T18:20:58.898Z,6.10
2017-09-22T18:23:27.227Z,14.20
2017-09-22T18:25:55.466Z,6.90
2017-09-22T18:28:23.098Z,5.57
2017-09-22T18:30:51.624Z,7.00
2017-09-22T18:33:19.168Z,10.93
2017-09-22T18:35:46.623Z,7.00
2017-09-22T18:38:14.124Z,6.20
2017-09-22T18:40:41.651Z,6.30
2017-09-22T18:43:09.135Z,4.83
2017-09-22T18:45:36.626Z,12.60
2017-09-22T18:48:04.907Z,11.20
2017-09-22T18:50:33.171Z,5.20
2017-09-22T18:53:00.720Z,7.20
2017-09-22T18:55:28.198Z,4.80
2017-09-22T18:57:56.441Z,12.00
2017-09-22T19:00:23.971Z,8.57
2017-09-22T19:02:51.434Z,5.13
2017-09-22T19:05:18.927Z,5.17
2017-09-22T19:07:46.395Z,5.10
2017-09-22T19:10:14.659Z,6.13
2017-09-22T19:12:42.168Z,16.43
2017-09-22T19:15:09.631Z,7.17
2017-09-22T19:17:37.130Z,5.73
2017-09-22T19:20:04.615Z,6.93
2017-09-22T19:22:32.883Z,5.60
2017-09-22T19:25:01.136Z,7.80
2017-09-22T19:27:28.609Z,7.37
2017-09-22T19:29:56.137Z,9.53
2017-09-22T19:32:23.611Z,6.10
2017-09-22T19:34:51.120Z,6.30
2017-09-22T19:37:18.600Z,13.13
2017-09-22T19:39:46.129Z,14.70
2017-09-22T19:42:14.351Z,9.57
2017-09-22T19:44:41.848Z,13.23
2017-09-22T19:47:09.347Z,7.63
2017-09-22T19:49:36.819Z,5.80
2017-09-22T19:52:04.328Z,7.37
2017-09-22T19:54:32.570Z,7.97
2017-09-22T19:57:00.072Z,7.43
2017-09-22T19:59:28.324Z,13.17
2017-09-22T20:01:56.248Z,8.37
2017-09-22T20:04:24.745Z,8.80
2017-09-22T20:06:52.229Z,5.40
2017-09-22T20:09:19.723Z,8.03
2017-09-22T20:11:47.808Z,6.00
2017-09-22T20:14:15.269Z,16.33
2017-09-22T20:16:42.758Z,6.27
2017-09-22T20:19:10.228Z,15.63
2017-09-22T20:21:37.752Z,6.90
2017-09-22T20:24:05.228Z,5.30
2017-09-22T20:26:32.731Z,7.10
2017-09-22T20:29:00.979Z,14.57
2017-09-22T20:31:28.480Z,6.87
2017-09-22T20:33:56.028Z,10.63
2017-09-22T20:36:24.256Z,6.20
2017-09-22T20:38:51.728Z,5.53
2017-09-22T20:41:19.228Z,8.73
2017-09-22T20:43:47.495Z,8.00
2017-09-22T20:46:15.776Z,9.47
2017-09-22T20:48:43.998Z,8.70
2017-09-22T20:51:11.489Z,6.63
2017-09-22T20:53:38.988Z,8.30
2017-09-22T20:56:06.478Z,5.20
2017-09-22T20:58:34.078Z,7.07
2017-09-22T21:01:01.578Z,9.17
2017-09-22T21:03:29.073Z,6.00
2017-09-22T21:05:56.700Z,6.67
2017-09-22T21:08:24.191Z,7.10
2017-09-22T21:10:51.678Z,10.20
2017-09-22T21:13:19.926Z,12.00
2017-09-22T21:15:47.467Z,8.93
2017-09-22T21:18:14.947Z,7.57
2017-09-22T21:20:43.190Z,7.33
2017-09-22T21:23:10.746Z,8.23
2017-09-22T21:25:38.190Z,9.10
2017-09-22T21:28:05.695Z,11.40
2017-09-22T21:30:33.177Z,12.13
2017-09-22T21:33:01.427Z,9.00
2017-09-22T21:35:28.915Z,16.13
2017-09-22T21:37:57.149Z,13.03
2017-09-22T21:40:24.765Z,13.43
2017-09-22T21:42:52.989Z,6.10
2017-09-22T21:45:20.480Z,13.47
2017-09-22T21:47:47.971Z,10.93
2017-09-22T21:50:17.080Z,9.60
2017-09-22T21:52:44.579Z,6.60
2017-09-22T21:55:12.328Z,8.50
2017-09-22T21:57:39.842Z,6.97
2017-09-22T22:00:08.084Z,11.33
2017-09-22T22:02:39.607Z,7.13
2017-09-22T22:05:12.777Z,7.23
2017-09-22T22:07:40.266Z,10.87
2017-09-22T22:10:07.762Z,5.37
2017-09-22T22:12:35.231Z,7.93
2017-09-22T22:15:03.514Z,6.50
2017-09-22T22:17:31.746Z,6.60
2017-09-22T22:19:59.217Z,8.73
2017-09-22T22:22:26.715Z,7.33
2017-09-22T22:24:54.951Z,7.20
2017-09-22T22:27:22.451Z,6.47
2017-09-22T22:29:49.923Z,6.07
2017-09-22T22:32:17.427Z,7.60
2017-09-22T22:34:44.922Z,10.50
2017-09-22T22:37:13.135Z,8.47
2017-09-22T22:39:40.592Z,7.03
2017-09-22T22:42:08.119Z,9.27
2017-09-22T22:44:36.387Z,5.73
2017-09-22T22:47:04.640Z,8.00
2017-09-22T22:49:32.159Z,6.37
2017-09-22T22:51:59.690Z,9.83
2017-09-22T22:54:27.911Z,7.17
2017-09-22T22:56:55.391Z,6.30
2017-09-22T22:59:22.863Z,6.60
2017-09-22T23:01:51.084Z,7.73
2017-09-22T23:04:18.580Z,7.57
2017-09-22T23:06:46.054Z,6.50
2017-09-22T23:09:14.288Z,9.43
2017-09-22T23:11:41.787Z,9.40
2017-09-22T23:14:10.036Z,7.00
2017-09-22T23:16:37.534Z,9.53
2017-09-22T23:19:05.818Z,7.80
2017-09-22T23:21:34.055Z,11.43
2017-09-22T23:24:01.520Z,9.83
2017-09-22T23:26:29.039Z,7.93
2017-09-22T23:28:56.513Z,10.13
2017-09-22T23:31:24.006Z,6.50
2017-09-22T23:33:52.261Z,8.37
2017-09-22T23:36:19.738Z,7.67
2017-09-22T23:38:47.240Z,6.30
2017-09-22T23:41:14.714Z,13.30
2017-09-22T23:43:42.239Z,14.03
2017-09-22T23:46:10.464Z,7.97
2017-09-22T23:48:37.919Z,11.33
2017-09-22T23:51:05.421Z,10.03
2017-09-22T23:53:33.651Z,6.57
2017-09-22T23:56:01.135Z,8.23
2017-09-22T23:58:28.641Z,7.53
